Time;durP1;ratioP1;P1;durP2;ratioP2;P2;SDS_P1;SDS_P2;PMS_P1;PMS_P2;Temp;Humidity;BMP_temperature;BMP_pressure;BME280_temperature;BME280_humidity;BME280_pressure;Samples;Min_cycle;Max_cycle;Signal;HPM_P1;HPM_P2
2022/07/11 00:13:55;;;;;;;3.00;1.38;;;;;;;13.86;100.00;100324.51;713930;1174;115591;-72
2022/07/11 00:28:57;;;;;;;3.20;1.63;;;;;;;13.98;100.00;100317.16;713801;1174;114932;-73
2022/07/11 00:44:01;;;;;;;3.07;1.57;;;;;;;13.92;100.00;100309.86;713766;1174;115688;-72
2022/07/11 00:59:03;;;;;;;1.30;0.70;;;;;;;13.79;100.00;100310.27;713712;1174;116058;-73
2022/07/11 01:14:06;;;;;;;0.83;0.70;;;;;;;13.56;100.00;100308.16;713655;1174;114986;-73
2022/07/11 01:29:13;;;;;;;0.80;0.70;;;;;;;13.67;100.00;100293.89;713924;1174;114335;-71
2022/07/11 01:44:15;;;;;;;0.90;0.70;;;;;;;13.63;100.00;100279.38;713664;1174;115597;-72
2022/07/11 01:59:17;;;;;;;1.73;1.10;;;;;;;13.55;100.00;100251.16;713679;1173;115986;-72
2022/07/11 02:14:19;;;;;;;1.93;0.87;;;;;;;13.82;100.00;100238.80;713867;1174;115475;-73
2022/07/11 02:29:22;;;;;;;4.40;1.20;;;;;;;13.84;100.00;100252.63;713875;1174;115819;-73
2022/07/11 02:44:25;;;;;;;4.10;0.80;;;;;;;13.88;100.00;100247.88;714022;1174;115554;-72
2022/07/11 02:59:27;;;;;;;1.08;0.80;;;;;;;13.97;100.00;100270.66;713790;1174;114924;-73
2022/07/11 03:14:30;;;;;;;3.35;1.98;;;;;;;13.89;100.00;100270.63;713945;1174;115879;-82
2022/07/11 03:29:33;;;;;;;2.35;1.28;;;;;;;13.74;100.00;100283.58;714144;1174;115333;-81
2022/07/11 03:44:35;;;;;;;13.40;3.85;;;;;;;13.62;100.00;100293.55;713913;1174;114872;-85
2022/07/11 03:59:37;;;;;;;2.70;1.60;;;;;;;13.55;100.00;100297.77;714616;1174;116006;-84
2022/07/11 04:14:39;;;;;;;1.48;1.00;;;;;;;13.67;100.00;100330.80;714206;1174;115757;-78
2022/07/11 04:29:42;;;;;;;1.63;1.53;;;;;;;13.57;100.00;100330.91;714026;1174;115126;-74
2022/07/11 04:44:44;;;;;;;2.25;1.70;;;;;;;13.66;100.00;100337.08;713994;1174;115207;-74
2022/07/11 04:59:46;;;;;;;3.20;1.47;;;;;;;14.02;100.00;100329.05;714095;1173;114303;-74
2022/07/11 05:14:49;;;;;;;3.95;2.10;;;;;;;14.58;100.00;100339.17;714023;1174;115775;-80
2022/07/11 05:29:51;;;;;;;5.68;1.70;;;;;;;14.79;100.00;100344.89;714992;1174;114895;-80
2022/07/11 05:44:53;;;;;;;1.48;1.25;;;;;;;15.05;100.00;100338.66;714697;1174;114374;-79
2022/07/11 05:59:56;;;;;;;1.85;1.35;;;;;;;15.42;100.00;100353.21;713985;1174;115970;-79
2022/07/11 06:14:58;;;;;;;1.58;1.13;;;;;;;15.76;100.00;100364.61;714360;1173;114611;-81
2022/07/11 06:30:00;;;;;;;1.48;0.70;;;;;;;16.04;100.00;100373.02;714532;1173;115268;-78
2022/07/11 06:45:03;;;;;;;10.93;3.65;;;;;;;15.99;100.00;100371.88;714598;1174;115688;-80
2022/07/11 07:00:07;;;;;;;3.70;2.13;;;;;;;16.01;100.00;100369.88;714240;1174;118199;-80
2022/07/11 07:15:10;;;;;;;4.00;1.50;;;;;;;16.57;100.00;100375.97;713966;1174;115636;-81
2022/07/11 07:30:12;;;;;;;2.10;1.57;;;;;;;17.16;100.00;100387.14;714062;1174;114687;-81
2022/07/11 07:45:14;;;;;;;1.70;1.50;;;;;;;17.73;100.00;100383.20;714309;1174;115489;-82
2022/07/11 08:15:40;;;;;;;3.37;1.73;;;;;;;19.89;98.93;100361.60;713852;1174;114349;-80
2022/07/11 08:30:43;;;;;;;4.73;0.80;;;;;;;20.17;96.36;100358.08;713904;1174;115730;-79
2022/07/11 08:45:46;;;;;;;2.00;0.80;;;;;;;21.08;92.93;100357.80;714245;1174;115380;-80
2022/07/11 09:00:49;;;;;;;0.73;0.73;;;;;;;21.05;87.67;100350.21;714024;1174;115795;-80
2022/07/11 09:16:02;;;;;;;6.98;3.13;;;;;;;21.44;88.67;100369.95;714575;1173;115525;-80
2022/07/11 09:31:16;;;;;;;3.33;1.53;;;;;;;21.08;84.03;100373.80;714099;1174;115413;-80
2022/07/11 09:46:24;;;;;;;4.88;1.63;;;;;;;20.80;83.80;100394.43;714083;1174;115767;-82
2022/07/11 10:01:28;;;;;;;3.80;2.05;;;;;;;19.63;87.82;100385.11;714162;1174;115903;-80
2022/07/11 10:16:39;;;;;;;3.40;1.50;;;;;;;20.02;90.17;100380.31;714287;1174;114703;-80
2022/07/11 10:31:42;;;;;;;1.40;0.70;;;;;;;22.83;89.20;100371.71;714710;1174;115759;-80
2022/07/11 10:47:40;;;;;;;2.50;0.97;;;;;;;24.46;82.10;100370.94;714711;1174;114060;-80
2022/07/11 11:03:11;;;;;;;2.15;0.35;;;;;;;25.86;77.27;100356.48;714045;1174;115475;-83
2022/07/11 11:18:23;;;;;;;0.53;0.40;;;;;;;26.40;71.68;100367.84;715367;1174;114141;-88
2022/07/11 11:33:30;;;;;;;3.98;1.10;;;;;;;25.51;66.86;100368.88;714609;1174;115725;-87
2022/07/11 11:48:35;;;;;;;0.95;0.70;;;;;;;25.27;65.91;100389.45;715292;1174;115487;-87
2022/07/11 12:03:55;;;;;;;0.20;0.20;;;;;;;23.87;71.70;100413.38;714234;1173;115752;-75
2022/07/11 12:18:59;;;;;;;0.50;0.50;;;;;;;23.92;76.92;100405.53;714098;1174;115537;-77
2022/07/11 12:34:02;;;;;;;0.90;0.20;;;;;;;26.22;74.67;100401.11;714040;1174;115200;-75
2022/07/11 12:49:11;;;;;;;1.45;0.48;;;;;;;26.70;67.58;100417.93;715159;1174;114655;-75
2022/07/11 13:04:40;;;;;;;0.67;0.40;;;;;;;25.57;64.05;100400.14;714278;1173;114833;-77
2022/07/11 13:19:42;;;;;;;;;;;;;;;26.45;64.19;100410.17;714567;1174;114735;-77
2022/07/11 13:34:45;;;;;;;0.85;0.70;;;;;;;23.67;66.21;100419.72;714324;1174;100451;-79
2022/07/11 13:49:49;;;;;;;1.08;0.40;;;;;;;21.89;70.83;100436.06;714001;1174;115729;-75
2022/07/11 14:04:51;;;;;;;0.90;0.40;;;;;;;22.41;73.97;100446.11;715530;1174;115397;-78
2022/07/11 14:19:56;;;;;;;0.83;0.40;;;;;;;23.60;71.28;100461.81;714527;1174;114989;-78
2022/07/11 14:35:00;;;;;;;11.53;5.95;;;;;;;23.81;74.98;100454.42;714370;1174;115726;-78
2022/07/11 14:50:03;;;;;;;2.25;2.05;;;;;;;25.40;73.89;100448.36;714571;1174;114865;-78
2022/07/11 15:05:06;;;;;;;2.35;1.63;;;;;;;25.63;70.56;100462.88;714321;1174;115479;-77
2022/07/11 15:20:09;;;;;;;2.28;0.70;;;;;;;25.74;67.16;100466.63;714180;1174;115788;-78
2022/07/11 15:35:11;;;;;;;3.30;1.25;;;;;;;24.72;65.70;100471.72;714369;1174;115475;-79
2022/07/11 15:50:14;;;;;;;1.37;0.37;;;;;;;24.36;66.08;100475.18;714179;1174;114162;-71
2022/07/11 16:05:16;;;;;;;0.70;0.53;;;;;;;24.22;63.98;100485.23;714010;1174;114063;-71
2022/07/11 16:20:19;;;;;;;0.30;0.30;;;;;;;23.87;63.75;100486.50;714140;1174;115413;-72
2022/07/11 16:35:22;;;;;;;2.18;1.03;;;;;;;23.65;64.67;100495.95;713975;1174;115569;-73
2022/07/11 16:50:25;;;;;;;1.50;0.90;;;;;;;23.25;64.96;100503.20;714159;1174;114823;-73
2022/07/11 17:05:42;;;;;;;1.15;0.93;;;;;;;23.19;65.86;100496.03;716830;1174;115513;-80
2022/07/11 17:20:46;;;;;;;0.45;0.35;;;;;;;22.55;66.53;100503.02;715345;1174;115559;-81
2022/07/11 17:35:50;;;;;;;1.65;0.90;;;;;;;21.18;69.17;100520.12;713863;1174;114556;-82
2022/07/11 17:50:53;;;;;;;1.43;0.93;;;;;;;20.54;72.39;100527.33;714291;1174;115839;-84
2022/07/11 18:06:15;;;;;;;3.93;2.10;;;;;;;20.05;74.83;100529.02;714519;1174;114230;-77
2022/07/11 18:21:18;;;;;;;5.28;1.83;;;;;;;19.61;76.03;100544.14;714901;1174;114707;-77
2022/07/11 18:36:21;;;;;;;3.00;1.65;;;;;;;19.44;76.82;100545.39;714400;1173;115331;-77
2022/07/11 18:51:23;;;;;;;10.73;7.33;;;;;;;18.84;77.88;100555.22;714264;1174;115298;-77
2022/07/11 19:06:27;;;;;;;7.48;4.58;;;;;;;18.59;80.34;100564.25;714678;1174;115231;-78
2022/07/11 19:21:29;;;;;;;3.07;2.40;;;;;;;18.37;82.65;100568.63;714718;1174;115546;-79
2022/07/11 19:36:33;;;;;;;8.28;5.88;;;;;;;17.98;84.66;100574.09;715144;1174;114579;-79
2022/07/11 19:51:36;;;;;;;5.73;2.10;;;;;;;17.71;86.96;100566.44;714757;1174;115714;-80
2022/07/11 20:06:39;;;;;;;19.50;11.20;;;;;;;17.39;89.74;100570.89;714176;1174;114886;-80
2022/07/11 20:21:42;;;;;;;7.05;3.73;;;;;;;17.26;91.87;100568.81;714290;1174;114611;-81
2022/07/11 20:36:45;;;;;;;5.03;3.20;;;;;;;17.13;94.05;100563.24;714118;1173;115817;-80
2022/07/11 20:51:48;;;;;;;3.17;2.00;;;;;;;16.96;95.90;100557.17;714494;1174;115493;-80
2022/07/11 21:06:51;;;;;;;4.18;1.73;;;;;;;16.69;97.84;100567.12;713963;1174;115732;-81
2022/07/11 21:21:54;;;;;;;1.73;1.45;;;;;;;16.96;99.98;100562.47;714188;1174;115783;-80
2022/07/11 21:36:57;;;;;;;1.90;1.33;;;;;;;16.76;100.00;100561.97;714166;1174;115301;-81
2022/07/11 21:51:59;;;;;;;2.65;1.40;;;;;;;16.61;100.00;100567.14;714053;1174;114474;-81
2022/07/11 22:07:02;;;;;;;3.13;1.50;;;;;;;16.51;100.00;100569.13;714332;1174;115471;-80
2022/07/11 22:22:04;;;;;;;3.03;1.63;;;;;;;16.40;100.00;100560.53;713950;1174;115006;-80
2022/07/11 22:37:11;;;;;;;3.55;1.70;;;;;;;16.13;100.00;100561.72;713855;1173;115862;-79
2022/07/11 22:52:13;;;;;;;3.58;1.90;;;;;;;16.12;100.00;100567.99;713919;1173;115675;-81
2022/07/11 23:07:35;;;;;;;3.03;1.50;;;;;;;16.05;100.00;100583.70;713606;1174;116361;-79
2022/07/11 23:22:40;;;;;;;4.45;2.05;;;;;;;16.05;100.00;100565.18;713916;1174;115655;-79
2022/07/11 23:37:43;;;;;;;5.03;2.05;;;;;;;16.04;100.00;100574.10;713650;1174;114845;-79
2022/07/11 23:52:45;;;;;;;4.68;1.70;;;;;;;16.06;100.00;100566.84;713844;1173;114273;-79
